Карточка аэропорта UAKK

Внимание!
Информация на этой странице в стадии наполнения.
Если вы не увидели какой-то информации, или заметили неточность - пожалуйста сообщите нам!
Спасибо!
Команда RU-STAFF
Название аэропортаКараганда
Название аэропорта (англ.)Karaganda
Превышение1768 ft. (538.9 m.)
Координаты49°40.302', 73°20.118'
Высота перехода10000ft
Эшелон переходаFL120, QNH<733:FL130
Коды ответчика0630-0637, 7220-7227
Зона ОрВДАстана РПИ (UACN)
Данные METARUAKK 131930Z 09002MPS 070V130 9999 SCT049 15/14 Q1004 NOSIG RMK QFE706/0942
Проноз погоды (TAF)UAKK 131712Z 1318/1418 10005MPS 5000 BR SCT015 BKN050 TX30/1409Z TN13/1323Z TEMPO 1318/1402 14010MPS 1000 -TSRA BR SCT007 BKN020CB FM140200 05007MPS 9999 BKN030 BKN100 TEMPO 1402/1412 VRB13MPS 3100 -TSRA SQ BKN020CB BECMG 1412/1414 30006MPS TEMPO 1412/1418 VRB15MPS 2000 TSRA SQ BKN015CB
NOTAMshow/hide NOTAM
AWOS   TABLE

Информация о ВПП

ВПП Длина ВПП (м.) Покрытие Курс ВПП Частота ILS
053601Железобетон50109.9
233601Железобетон230111.7

Диспетчерские позиции




Спутниковое изображение